Time;durP1;ratioP1;P1;durP2;ratioP2;P2;SDS_P1;SDS_P2;PMS_P1;PMS_P2;Temp;Humidity;BMP_temperature;BMP_pressure;BME280_temperature;BME280_humidity;BME280_pressure;Samples;Min_cycle;Max_cycle;Signal;HPM_P1;HPM_P2
2022/08/11 00:00:36;;;;;;;7.28;3.03;;;;;;;20.91;54.99;102186.00;5037567;28;20039;-47
2022/08/11 00:03:04;;;;;;;6.13;3.20;;;;;;;20.91;54.79;102187.84;5055559;28;20068;-45
2022/08/11 00:05:30;;;;;;;5.22;2.88;;;;;;;20.88;55.01;102191.00;5044419;28;20040;-47
2022/08/11 00:07:57;;;;;;;3.50;3.10;;;;;;;20.88;55.54;102191.00;5056435;28;20503;-49
2022/08/11 00:10:26;;;;;;;6.97;3.05;;;;;;;20.80;55.19;102183.81;5050461;28;20021;-48
2022/08/11 00:12:56;;;;;;;8.60;3.30;;;;;;;20.67;55.65;102185.41;5035805;28;20075;-49
2022/08/11 00:15:23;;;;;;;7.90;3.10;;;;;;;20.60;55.97;102179.00;5034537;28;20475;-48
2022/08/11 00:17:56;;;;;;;10.93;3.30;;;;;;;20.63;55.54;102185.97;5035413;28;20491;-49
2022/08/11 00:20:27;;;;;;;7.05;3.20;;;;;;;20.59;56.36;102185.50;5035868;28;20033;-49
2022/08/11 00:22:59;;;;;;;;;;;;;;;20.73;53.74;102183.75;5035880;28;20332;-48
2022/08/11 00:25:25;;;;;;;9.80;3.20;;;;;;;20.62;55.40;102184.25;5048368;28;20474;-46
2022/08/11 00:27:50;;;;;;;10.13;3.60;;;;;;;20.65;55.54;102182.00;5039162;28;20434;-49
2022/08/11 00:30:16;;;;;;;5.50;3.65;;;;;;;20.59;55.61;102176.53;5034582;28;20620;-45
2022/08/11 00:32:53;;;;;;;7.75;3.35;;;;;;;20.58;56.09;102177.53;5034953;28;20035;-48
2022/08/11 00:35:25;;;;;;;9.02;3.60;;;;;;;20.45;56.26;102176.41;5041038;28;20533;-46
2022/08/11 00:37:52;;;;;;;5.90;3.40;;;;;;;20.44;55.72;102182.00;5038757;28;20112;-49
2022/08/11 00:40:29;;;;;;;6.90;3.30;;;;;;;20.40;56.05;102178.00;5035321;28;20018;-50
2022/08/11 00:43:14;;;;;;;8.13;3.47;;;;;;;20.30;56.44;102173.75;5042946;28;20093;-48
2022/08/11 00:45:46;;;;;;;4.63;3.30;;;;;;;20.27;57.24;102178.72;5052549;28;20028;-48
2022/08/11 00:48:28;;;;;;;9.90;3.30;;;;;;;20.15;57.55;102175.66;5055179;28;20687;-46
2022/08/11 00:51:14;;;;;;;5.50;3.25;;;;;;;20.03;58.05;102179.94;5038816;28;20075;-45
2022/08/11 00:53:53;;;;;;;5.85;3.65;;;;;;;20.00;58.38;102183.00;5035450;28;20025;-45
2022/08/11 00:56:49;;;;;;;5.45;3.47;;;;;;;19.97;58.17;102167.94;5034575;28;20068;-45
2022/08/11 00:59:37;;;;;;;8.93;3.53;;;;;;;19.98;58.13;102172.34;5045621;28;20027;-49
2022/08/11 01:02:17;;;;;;;7.93;3.65;;;;;;;19.86;59.56;102176.59;5042066;28;20028;-49
2022/08/11 01:05:00;;;;;;;6.75;3.42;;;;;;;19.85;58.92;102175.75;5038915;28;20106;-49
2022/08/11 01:07:49;;;;;;;9.15;3.70;;;;;;;19.75;59.73;102180.63;5037458;28;20096;-49
2022/08/11 01:10:39;;;;;;;9.95;3.83;;;;;;;19.72;59.98;102181.81;5035113;28;20228;-49
2022/08/11 01:13:42;;;;;;;5.88;3.50;;;;;;;19.59;59.93;102178.09;5034730;28;20103;-51
2022/08/11 01:16:57;;;;;;;5.55;3.35;;;;;;;19.51;60.29;102173.63;5032674;28;20017;-49
2022/08/11 01:19:44;;;;;;;6.43;3.40;;;;;;;19.39;60.55;102181.38;5014857;28;20047;-48
2022/08/11 01:22:40;;;;;;;6.43;4.07;;;;;;;19.34;61.10;102175.69;5054640;28;20835;-51
2022/08/11 01:25:30;;;;;;;5.43;3.70;;;;;;;19.29;61.92;102180.81;5054063;28;20028;-47
2022/08/11 01:28:26;;;;;;;5.50;4.00;;;;;;;19.25;61.24;102188.47;5045941;28;20039;-48
2022/08/11 01:31:01;;;;;;;10.25;3.95;;;;;;;19.15;62.46;102186.03;5031876;28;20460;-47
2022/08/11 01:34:03;;;;;;;8.00;3.95;;;;;;;19.13;61.52;102181.84;5037215;28;20037;-49
2022/08/11 01:36:40;;;;;;;7.25;4.00;;;;;;;19.15;62.06;102180.63;5041886;28;20021;-47
2022/08/11 01:39:45;;;;;;;7.93;4.20;;;;;;;19.16;61.29;102176.03;5034307;28;20033;-46
2022/08/11 01:45:30;;;;;;;8.63;4.32;;;;;;;19.20;62.73;102180.06;5047400;28;20139;-47
2022/08/11 01:48:05;;;;;;;6.00;4.07;;;;;;;19.21;62.53;102173.59;5032729;28;20025;-46
2022/08/11 01:50:30;;;;;;;8.32;4.18;;;;;;;19.20;62.65;102178.19;5034502;28;20036;-50
2022/08/11 01:53:07;;;;;;;9.13;4.00;;;;;;;19.19;62.34;102170.25;5052059;28;20032;-49
2022/08/11 01:55:42;;;;;;;9.23;4.18;;;;;;;19.18;62.85;102172.13;5054542;28;20528;-49
2022/08/11 01:58:45;;;;;;;8.45;4.00;;;;;;;19.20;62.23;102172.78;5043672;28;20566;-47
2022/08/11 02:01:27;;;;;;;8.07;4.00;;;;;;;19.18;62.16;102174.00;5032226;28;20075;-49
2022/08/11 02:04:08;;;;;;;6.97;4.18;;;;;;;19.15;63.02;102180.63;5036891;28;20116;-49
2022/08/11 02:06:55;;;;;;;;;;;;;;;19.27;60.60;102174.75;5054207;28;20058;-49
2022/08/11 02:09:57;;;;;;;7.45;4.03;;;;;;;19.17;61.80;102169.59;5041101;28;20287;-50
2022/08/11 02:12:45;;;;;;;9.98;4.20;;;;;;;19.10;62.84;102176.78;5036274;28;20601;-51
2022/08/11 02:15:19;;;;;;;9.07;4.05;;;;;;;19.01;63.42;102167.91;5039999;28;20376;-51
2022/08/11 02:18:12;;;;;;;7.80;3.78;;;;;;;18.98;63.33;102179.94;5053601;28;20020;-50
2022/08/11 02:23:42;;;;;;;12.05;4.32;;;;;;;18.76;65.10;102181.63;5044693;28;20326;-45
2022/08/11 02:26:20;;;;;;;6.22;4.18;;;;;;;18.63;65.18;102181.41;5049992;28;20036;-45
2022/08/11 02:29:10;;;;;;;7.07;4.10;;;;;;;18.52;65.64;102184.56;5051870;28;20468;-49
2022/08/11 02:34:46;;;;;;;8.48;4.45;;;;;;;18.51;65.10;102177.44;5037188;28;20566;-47
2022/08/11 02:37:31;;;;;;;11.35;4.93;;;;;;;18.42;66.48;102173.97;5037805;28;20090;-49
2022/08/11 02:39:56;;;;;;;8.60;4.03;;;;;;;18.34;67.65;102171.31;5052061;28;20033;-50
2022/08/11 02:42:25;;;;;;;10.95;4.65;;;;;;;18.32;67.51;102171.50;5037562;28;20392;-50
2022/08/11 02:45:08;;;;;;;7.10;4.70;;;;;;;18.25;67.69;102163.25;5046393;28;20029;-50
2022/08/11 02:49:52;;;;;;;6.72;4.65;;;;;;;18.24;68.20;102166.16;5037055;28;20021;-46
2022/08/11 02:50:33;;;;;;;13.23;4.75;;;;;;;18.23;68.80;102169.88;5045294;28;20124;-51
2022/08/11 02:53:06;;;;;;;10.00;4.22;;;;;;;18.17;68.80;102171.44;5041943;28;20375;-49
2022/08/11 02:55:46;;;;;;;9.32;4.60;;;;;;;18.14;68.81;102169.06;5039290;28;20064;-49
2022/08/11 02:58:34;;;;;;;13.48;4.90;;;;;;;18.00;69.41;102162.56;5057197;28;20027;-51
2022/08/11 03:01:22;;;;;;;15.82;5.35;;;;;;;17.91;69.34;102173.63;5055666;28;20460;-50
2022/08/11 03:04:09;;;;;;;7.82;4.70;;;;;;;17.86;70.12;102180.41;5044160;28;20045;-46
2022/08/11 03:06:49;;;;;;;8.98;4.70;;;;;;;17.85;70.88;102178.69;5037845;28;20554;-48
2022/08/11 03:09:26;;;;;;;15.65;4.95;;;;;;;17.78;71.69;102176.88;5039974;28;20072;-51
2022/08/11 03:18:02;;;;;;;10.60;5.60;;;;;;;17.67;74.74;102173.53;5036837;28;20288;-46
2022/08/11 03:20:42;;;;;;;12.43;5.00;;;;;;;17.55;76.04;102177.66;5043911;28;20511;-48
2022/08/11 03:23:31;;;;;;;18.17;5.18;;;;;;;17.55;75.24;102176.78;5044053;28;20426;-45
2022/08/11 03:26:12;;;;;;;12.40;5.78;;;;;;;17.45;77.50;102179.72;5057404;28;20028;-46
2022/08/11 03:29:01;;;;;;;12.10;5.80;;;;;;;17.38;74.91;102166.06;5056992;28;20036;-49
2022/08/11 03:31:32;;;;;;;16.92;5.97;;;;;;;17.28;78.42;102166.25;5049250;28;20032;-50
2022/08/11 03:34:07;;;;;;;13.43;5.60;;;;;;;17.27;77.37;102179.91;5036511;28;20160;-50
2022/08/11 03:37:11;;;;;;;15.90;5.72;;;;;;;17.24;77.91;102173.00;5037757;28;20399;-49
2022/08/11 03:39:56;;;;;;;18.88;6.15;;;;;;;17.15;79.86;102174.03;5037129;28;20419;-47
2022/08/11 03:42:28;;;;;;;12.02;5.68;;;;;;;17.04;77.83;102169.00;5051683;28;20106;-46
2022/08/11 03:45:21;;;;;;;12.23;5.85;;;;;;;17.04;76.24;102171.69;5043298;28;20143;-49
2022/08/11 03:48:05;;;;;;;11.60;6.40;;;;;;;16.99;82.08;102171.34;5054403;28;20668;-50
2022/08/11 03:50:55;;;;;;;9.65;5.88;;;;;;;16.98;78.49;102167.81;5037882;28;20033;-47
2022/08/11 03:53:53;;;;;;;12.68;6.10;;;;;;;16.95;77.17;102166.34;5047779;28;20029;-51
2022/08/11 03:56:37;;;;;;;10.25;6.00;;;;;;;16.86;80.21;102171.91;5051938;28;20506;-48
2022/08/11 03:59:38;;;;;;;16.83;6.25;;;;;;;16.78;78.75;102168.19;5037071;28;20116;-50
2022/08/11 04:02:38;;;;;;;23.30;6.85;;;;;;;16.75;79.29;102165.81;5034323;28;20613;-45
2022/08/11 04:05:25;;;;;;;24.23;6.50;;;;;;;16.71;80.20;102164.44;5051012;28;20423;-47
2022/08/11 04:08:11;;;;;;;37.88;7.25;;;;;;;16.54;81.03;102168.16;5050819;28;20063;-47
2022/08/11 04:11:14;;;;;;;11.23;5.53;;;;;;;16.55;80.63;102173.38;5055908;28;20255;-47
2022/08/11 04:15:58;;;;;;;32.58;7.00;;;;;;;16.59;85.38;102168.50;5050866;28;20167;-49
2022/08/11 04:16:47;;;;;;;24.15;6.45;;;;;;;16.56;82.82;102164.31;5034415;28;20044;-48
2022/08/11 04:19:44;;;;;;;11.13;5.97;;;;;;;16.62;80.99;102156.53;5050519;28;20056;-48
2022/08/11 04:22:28;;;;;;;14.75;6.63;;;;;;;16.70;81.29;102161.91;5050898;28;20020;-47
2022/08/11 04:25:09;;;;;;;22.92;6.28;;;;;;;16.72;83.00;102163.44;5044427;28;20504;-50
2022/08/11 04:27:59;;;;;;;10.18;5.75;;;;;;;16.73;81.18;102169.66;5036553;28;20056;-50
2022/08/11 04:30:55;;;;;;;9.32;5.95;;;;;;;16.68;81.49;102161.25;5032350;28;20333;-49
2022/08/11 04:33:47;;;;;;;14.20;5.88;;;;;;;16.70;82.07;102165.47;5035037;28;20017;-48
2022/08/11 04:39:42;;;;;;;12.43;6.35;;;;;;;16.60;81.22;102172.91;5036050;28;20644;-47
2022/08/11 04:45:50;;;;;;;8.80;6.28;;;;;;;16.56;81.43;102167.00;5035019;28;20039;-48
2022/08/11 05:05:29;;;;;;;17.70;7.18;;;;;;;16.65;83.34;102170.53;5044616;28;20566;-49
2022/08/11 05:07:06;;;;;;;10.43;6.72;;;;;;;16.66;83.63;102169.50;5034994;28;20071;-46
2022/08/11 05:10:02;;;;;;;61.88;8.18;;;;;;;16.62;83.09;102164.63;5036176;28;20104;-48
2022/08/11 05:12:40;;;;;;;97.10;9.15;;;;;;;16.57;84.84;102165.13;5035089;28;20091;-48
2022/08/11 05:35:31;;;;;;;9.65;5.97;;;;;;;17.26;81.99;102164.72;5054636;28;20071;-50
2022/08/11 05:57:31;;;;;;;11.07;5.70;;;;;;;18.05;80.20;102176.41;5054458;28;20051;-46
2022/08/11 06:00:04;;;;;;;13.05;6.07;;;;;;;18.10;78.18;102169.63;5040851;28;20040;-50
2022/08/11 06:02:30;;;;;;;13.55;5.88;;;;;;;18.20;76.86;102171.06;5048933;28;20032;-48
2022/08/11 06:05:00;;;;;;;11.52;6.18;;;;;;;18.27;76.22;102172.03;5054639;28;20034;-50
2022/08/11 06:07:28;;;;;;;12.90;6.18;;;;;;;18.38;75.39;102178.91;5051174;28;20340;-51
2022/08/11 06:09:57;;;;;;;13.70;5.82;;;;;;;18.42;75.77;102174.81;5034611;28;20394;-49
2022/08/11 06:12:25;;;;;;;18.50;6.28;;;;;;;18.50;74.85;102186.59;5044073;28;20498;-46
2022/08/11 06:14:54;;;;;;;16.38;6.00;;;;;;;18.59;74.69;102189.06;5053796;28;20024;-48
2022/08/11 06:17:25;;;;;;;13.57;6.60;;;;;;;18.69;74.58;102182.56;5053900;28;20532;-47
2022/08/11 06:19:58;;;;;;;12.20;6.40;;;;;;;18.75;74.24;102188.06;5054796;28;20033;-48
2022/08/11 06:22:24;;;;;;;13.65;5.97;;;;;;;18.84;73.57;102183.47;5052755;28;20864;-45
2022/08/11 06:24:57;;;;;;;12.35;5.97;;;;;;;18.95;74.19;102184.88;5044339;28;20720;-45
2022/08/11 06:27:27;;;;;;;21.77;6.40;;;;;;;19.04;73.29;102186.47;5044055;28;20592;-46
2022/08/11 06:29:54;;;;;;;7.85;6.20;;;;;;;19.09;73.82;102186.75;5033714;28;20074;-49
2022/08/11 06:32:25;;;;;;;16.42;6.72;;;;;;;19.11;74.30;102184.72;5035680;28;20033;-49
2022/08/11 06:35:06;;;;;;;11.68;6.20;;;;;;;19.24;73.23;102180.53;5037676;28;20069;-46
2022/08/11 06:37:45;;;;;;;18.00;6.80;;;;;;;19.36;72.31;102181.75;5046378;28;20025;-46
2022/08/11 06:40:23;;;;;;;9.75;6.60;;;;;;;19.47;71.76;102180.44;5053211;28;20021;-49
2022/08/11 06:43:01;;;;;;;16.92;6.70;;;;;;;19.59;72.57;102184.34;5034936;28;20037;-47
2022/08/11 06:45:32;;;;;;;14.52;6.85;;;;;;;19.68;71.45;102187.81;5031604;28;20462;-49
2022/08/11 06:47:59;;;;;;;15.95;6.90;;;;;;;19.79;70.62;102175.66;5034507;28;20511;-48
2022/08/11 06:53:11;;;;;;;16.08;7.32;;;;;;;20.07;69.15;102192.88;5052870;28;20490;-49
2022/08/11 07:01:20;;;;;;;14.38;7.15;;;;;;;20.53;67.28;102194.41;5044006;28;20077;-48
2022/08/11 07:03:53;;;;;;;14.93;6.85;;;;;;;20.62;67.14;102192.38;5037512;28;20049;-49
2022/08/11 07:06:37;;;;;;;17.70;7.25;;;;;;;20.76;66.06;102194.22;5039412;28;20029;-48
2022/08/11 07:15:40;;;;;;;13.93;7.18;;;;;;;21.32;65.04;102189.84;5035162;28;20068;-49
2022/08/11 07:29:30;;;;;;;15.52;6.80;;;;;;;22.25;62.72;102182.06;5056669;28;20510;-46
2022/08/11 07:32:02;;;;;;;10.10;6.05;;;;;;;22.43;60.29;102189.66;5049535;28;20710;-45
2022/08/11 07:34:34;;;;;;;23.48;6.55;;;;;;;22.59;60.05;102190.28;5056108;28;20467;-49
2022/08/11 07:37:07;;;;;;;11.52;6.20;;;;;;;22.77;58.16;102189.69;5037611;28;20457;-47
2022/08/11 07:39:37;;;;;;;13.43;5.75;;;;;;;22.91;59.53;102192.19;5037372;28;20025;-45
2022/08/11 07:42:10;;;;;;;17.20;5.95;;;;;;;23.07;57.93;102192.84;5041105;28;20475;-47
2022/08/11 07:52:52;;;;;;;12.95;5.30;;;;;;;23.69;57.09;102187.81;5049564;28;20137;-49
2022/08/11 07:55:20;;;;;;;11.27;5.32;;;;;;;23.79;56.20;102184.66;5048978;28;20056;-47
2022/08/11 08:19:55;;;;;;;10.93;4.47;;;;;;;25.04;51.08;102196.88;5036258;28;20174;-47
2022/08/11 08:22:21;;;;;;;15.35;4.75;;;;;;;25.17;49.61;102201.34;5038996;28;20040;-48
2022/08/11 08:24:48;;;;;;;13.15;5.20;;;;;;;25.25;48.30;102198.31;5053024;28;20042;-48
2022/08/11 08:27:14;;;;;;;11.68;4.50;;;;;;;25.38;47.09;102200.94;5035705;28;20028;-47
2022/08/11 08:32:27;;;;;;;10.90;4.60;;;;;;;25.48;46.14;102189.47;5035600;28;20056;-48
2022/08/11 08:34:54;;;;;;;9.93;4.25;;;;;;;25.59;47.53;102191.44;5035759;28;20025;-47
2022/08/11 08:37:23;;;;;;;10.07;3.92;;;;;;;25.66;45.86;102194.94;5059839;28;20138;-47
2022/08/11 08:39:49;;;;;;;16.40;4.20;;;;;;;25.84;44.65;102194.06;5052007;28;20044;-46
2022/08/11 08:42:27;;;;;;;9.63;4.40;;;;;;;26.06;49.01;102188.13;5035191;28;20032;-48
2022/08/11 08:45:00;;;;;;;9.27;4.28;;;;;;;26.17;45.12;102183.75;5034659;28;20037;-45
2022/08/11 08:47:28;;;;;;;13.50;4.30;;;;;;;26.29;44.54;102190.13;5040098;28;20036;-49
2022/08/11 08:50:00;;;;;;;6.10;3.85;;;;;;;26.40;45.95;102189.28;5054010;28;20597;-46
2022/08/11 08:52:29;;;;;;;9.93;5.00;;;;;;;26.48;43.78;102188.13;5046923;28;20615;-48
2022/08/11 08:55:01;;;;;;;9.27;4.30;;;;;;;26.53;41.94;102187.44;5035162;28;20028;-50
2022/08/11 08:57:28;;;;;;;13.25;4.03;;;;;;;26.69;46.41;102188.66;5053468;28;20131;-50
2022/08/11 08:59:54;;;;;;;16.73;4.88;;;;;;;26.77;41.68;102191.88;5054235;28;20033;-49
2022/08/11 09:02:25;;;;;;;9.50;3.90;;;;;;;26.83;42.85;102190.09;5051621;28;20028;-50
2022/08/11 09:04:51;;;;;;;10.23;3.70;;;;;;;26.97;42.58;102193.47;5035590;28;20524;-49
2022/08/11 09:07:19;;;;;;;11.00;4.10;;;;;;;27.06;45.01;102189.28;5038395;28;20500;-47
2022/08/11 09:09:56;;;;;;;8.15;4.28;;;;;;;27.28;41.27;102191.41;5047944;28;20361;-46
2022/08/11 09:12:26;;;;;;;7.00;3.88;;;;;;;27.34;42.39;102177.59;5035294;28;20033;-46
2022/08/11 09:15:05;;;;;;;10.40;3.70;;;;;;;27.46;41.10;102182.19;5042284;28;20469;-47
2022/08/11 09:17:55;;;;;;;7.22;3.47;;;;;;;27.62;41.91;102188.84;5036526;28;20052;-50
2022/08/11 09:20:25;;;;;;;9.43;3.60;;;;;;;27.62;38.79;102180.63;5047507;28;20236;-47
2022/08/11 09:28:41;;;;;;;17.50;3.90;;;;;;;27.89;39.84;102176.22;5011295;28;20035;-49
2022/08/11 09:31:09;;;;;;;11.75;3.97;;;;;;;28.02;38.23;102177.88;5031267;28;20013;-47
2022/08/11 09:33:35;;;;;;;12.55;3.75;;;;;;;28.08;38.45;102174.13;5049759;28;20020;-47
2022/08/11 09:40:27;;;;;;;7.68;3.80;;;;;;;28.12;38.50;102168.13;5035227;28;20020;-47
2022/08/11 09:41:32;;;;;;;11.07;3.88;;;;;;;28.52;38.47;102170.75;5046693;28;20141;-50
2022/08/11 09:46:44;;;;;;;10.40;3.55;;;;;;;28.72;38.85;102166.69;5034034;28;20395;-49
2022/08/11 09:49:09;;;;;;;9.05;3.75;;;;;;;28.80;39.92;102164.38;5052500;28;20324;-47
2022/08/11 09:51:35;;;;;;;6.28;3.40;;;;;;;29.00;38.72;102161.06;5043108;28;20036;-49
2022/08/11 09:54:05;;;;;;;8.48;3.97;;;;;;;29.02;36.94;102160.81;5052775;28;20555;-50
2022/08/11 09:59:19;;;;;;;13.38;3.65;;;;;;;29.28;37.48;102159.28;5053618;28;20066;-49
2022/08/11 10:01:48;;;;;;;8.18;3.17;;;;;;;29.41;35.43;102165.47;5052111;28;20024;-47
2022/08/11 10:04:16;;;;;;;4.70;3.50;;;;;;;29.60;38.75;102160.47;5044790;28;20045;-50
2022/08/11 10:07:02;;;;;;;11.57;4.20;;;;;;;29.79;35.87;102160.97;5034199;28;20028;-50
2022/08/11 10:09:54;;;;;;;16.13;4.18;;;;;;;29.86;35.37;102145.94;5038798;28;20095;-49
2022/08/11 10:12:24;;;;;;;9.48;3.97;;;;;;;29.68;33.64;102149.00;5028289;28;20377;-50
2022/08/11 10:18:41;;;;;;;9.02;3.60;;;;;;;29.93;34.89;102152.06;5054223;28;20040;-47
2022/08/11 10:20:34;;;;;;;12.07;3.70;;;;;;;30.07;33.66;102137.88;5038389;28;20059;-48
2022/08/11 10:28:30;;;;;;;8.30;3.38;;;;;;;30.34;34.81;102139.75;5041331;28;20166;-49
2022/08/11 10:33:59;;;;;;;9.48;3.53;;;;;;;30.65;33.52;102132.56;5037719;28;20287;-51
2022/08/11 10:36:29;;;;;;;10.90;4.10;;;;;;;30.79;32.11;102139.28;5037785;28;20029;-47
2022/08/11 10:38:56;;;;;;;10.93;3.40;;;;;;;30.93;32.46;102136.06;5037697;28;20119;-47
2022/08/11 10:44:09;;;;;;;10.93;3.50;;;;;;;30.96;31.25;102133.63;5052634;28;20182;-50
2022/08/11 10:49:20;;;;;;;6.63;3.20;;;;;;;31.08;30.84;102133.41;5037884;28;20402;-51
2022/08/11 11:00:01;;;;;;;11.70;3.17;;;;;;;31.52;29.81;102121.16;5035735;28;20064;-46
2022/08/11 11:02:28;;;;;;;11.82;3.10;;;;;;;31.51;28.68;102117.56;5036692;28;20198;-47
2022/08/11 11:05:15;;;;;;;10.48;3.22;;;;;;;31.65;29.84;102120.63;5054655;28;20024;-47
2022/08/11 11:07:54;;;;;;;8.02;3.17;;;;;;;31.78;29.32;102113.75;5057428;28;20031;-48
2022/08/11 11:10:20;;;;;;;3.63;2.72;;;;;;;31.79;28.29;102112.66;5056720;28;20533;-47
2022/08/11 11:18:41;;;;;;;9.77;3.10;;;;;;;32.03;30.06;102106.59;5037651;28;19919;-50
2022/08/11 11:21:10;;;;;;;9.80;2.97;;;;;;;31.92;27.51;102109.34;5036714;28;20024;-49
2022/08/11 11:24:12;;;;;;;8.07;2.97;;;;;;;32.04;30.14;102102.72;5037354;28;20028;-50
2022/08/11 11:26:49;;;;;;;9.70;3.35;;;;;;;32.12;28.27;102111.31;5039679;28;20043;-52
2022/08/11 11:29:19;;;;;;;6.40;3.10;;;;;;;32.08;26.78;102101.09;5048020;28;20112;-48
2022/08/11 11:31:52;;;;;;;5.30;2.83;;;;;;;32.18;28.12;102101.13;5053844;28;20070;-50
2022/08/11 11:34:23;;;;;;;8.52;2.75;;;;;;;32.32;28.34;102101.38;5037741;28;20020;-48
2022/08/11 11:36:56;;;;;;;6.25;2.90;;;;;;;32.45;26.56;102099.97;5040602;28;20025;-51
2022/08/11 11:39:25;;;;;;;9.57;3.10;;;;;;;32.46;27.71;102096.91;5056759;28;20089;-51
2022/08/11 11:41:54;;;;;;;7.68;2.80;;;;;;;32.41;26.70;102096.09;5056212;28;20432;-51
2022/08/11 11:44:21;;;;;;;5.57;2.42;;;;;;;32.49;26.61;102099.13;5054584;28;20048;-49
2022/08/11 11:46:48;;;;;;;5.50;2.33;;;;;;;32.45;25.07;102091.66;5056328;28;20024;-49
2022/08/11 11:49:17;;;;;;;6.43;2.55;;;;;;;32.49;26.25;102101.06;5056610;28;20070;-50
2022/08/11 11:51:45;;;;;;;3.75;2.67;;;;;;;32.34;25.79;102097.22;5056136;28;20223;-51
2022/08/11 11:54:13;;;;;;;6.43;2.70;;;;;;;32.39;25.97;102087.28;5047268;28;20058;-51
2022/08/11 11:56:40;;;;;;;7.03;2.50;;;;;;;32.41;25.95;102087.81;5048094;28;20259;-50
2022/08/11 12:01:51;;;;;;;9.18;2.70;;;;;;;32.76;25.48;102080.56;5049852;28;20052;-49
2022/08/11 12:04:19;;;;;;;4.40;2.47;;;;;;;32.83;24.99;102078.34;5044140;28;20596;-50
2022/08/11 12:06:45;;;;;;;4.97;2.40;;;;;;;32.88;23.85;102078.31;5040314;28;20028;-52
2022/08/11 12:09:14;;;;;;;3.92;2.42;;;;;;;33.11;24.86;102081.53;5036339;28;20033;-49
2022/08/11 12:14:27;;;;;;;9.15;2.55;;;;;;;32.94;25.75;102074.41;5035329;28;20094;-50
2022/08/11 12:16:54;;;;;;;7.63;3.20;;;;;;;32.95;25.90;102064.19;5035035;28;20120;-47
2022/08/11 12:19:23;;;;;;;7.50;3.05;;;;;;;33.08;26.29;102078.22;5036578;28;20441;-51
2022/08/11 12:27:20;;;;;;;4.40;2.90;;;;;;;33.52;26.55;102065.56;5045536;28;20039;-48
2022/08/11 12:29:58;;;;;;;7.93;3.17;;;;;;;33.44;26.43;102052.31;5041695;28;20024;-47
2022/08/11 12:32:27;;;;;;;9.43;2.70;;;;;;;33.55;27.27;102059.41;5034453;28;20017;-50
2022/08/11 12:34:55;;;;;;;7.10;2.90;;;;;;;33.60;24.34;102053.03;5043687;28;20032;-48
2022/08/11 12:37:28;;;;;;;6.45;2.90;;;;;;;33.61;25.88;102054.69;5042699;28;20055;-50
2022/08/11 12:45:30;;;;;;;3.67;2.72;;;;;;;33.74;23.04;102045.75;5033535;28;20036;-49
2022/08/11 12:53:50;;;;;;;10.85;2.97;;;;;;;35.11;23.58;102030.69;5039171;28;20043;-49
2022/08/11 13:07:14;;;;;;;4.70;2.65;;;;;;;39.04;17.22;102022.63;5055356;28;20043;-50
2022/08/11 13:09:42;;;;;;;8.68;2.67;;;;;;;39.61;17.32;102016.03;5039341;28;20024;-50
2022/08/11 13:14:52;;;;;;;7.90;2.60;;;;;;;40.62;16.44;102007.13;5040388;28;20034;-50
2022/08/11 13:17:21;;;;;;;8.18;2.78;;;;;;;41.28;16.39;102013.25;5054069;28;20028;-51
2022/08/11 13:19:47;;;;;;;4.88;2.47;;;;;;;41.42;15.09;102012.97;5054935;28;20020;-51
2022/08/11 13:22:16;;;;;;;4.07;2.45;;;;;;;41.91;14.81;102013.13;5054036;28;20077;-50
2022/08/11 13:24:42;;;;;;;6.00;2.35;;;;;;;42.37;13.57;102001.84;5054919;28;20438;-50
2022/08/11 13:27:11;;;;;;;2.53;2.17;;;;;;;42.68;13.34;102007.66;5049668;28;20037;-48
2022/08/11 13:29:40;;;;;;;4.95;2.30;;;;;;;42.65;13.27;101996.31;5040965;28;20235;-50
2022/08/11 13:32:06;;;;;;;7.20;2.40;;;;;;;43.29;13.60;101994.59;5053690;28;20037;-48
2022/08/11 13:34:32;;;;;;;9.57;2.30;;;;;;;43.25;13.74;101990.03;5041190;28;20040;-49
2022/08/11 13:37:00;;;;;;;6.25;2.05;;;;;;;43.20;13.41;101997.56;5039337;28;20020;-48
2022/08/11 13:39:28;;;;;;;9.17;2.33;;;;;;;43.64;13.62;101995.94;5040394;28;20024;-52
2022/08/11 13:41:56;;;;;;;6.55;2.58;;;;;;;43.55;13.08;101990.50;5034110;28;20366;-50
2022/08/11 13:44:25;;;;;;;4.22;2.45;;;;;;;43.46;14.76;101985.03;5048288;28;20438;-50
2022/08/11 13:46:51;;;;;;;;;;;;;;;44.83;13.67;101986.41;5054048;28;20485;-52
2022/08/11 13:49:19;;;;;;;5.00;2.45;;;;;;;43.96;13.65;101983.56;5054623;28;19916;-51
2022/08/11 13:51:45;;;;;;;8.88;2.75;;;;;;;44.21;13.20;101983.38;5035377;28;20024;-48
2022/08/11 13:54:21;;;;;;;6.68;2.42;;;;;;;44.25;14.24;101991.91;5034322;28;20029;-50
2022/08/11 13:56:51;;;;;;;5.43;2.47;;;;;;;44.27;13.67;101984.75;5036313;28;20059;-50
2022/08/11 13:59:22;;;;;;;8.73;2.50;;;;;;;44.43;12.32;101979.06;5033564;28;20135;-50
2022/08/11 14:01:51;;;;;;;6.95;2.33;;;;;;;44.48;12.33;101961.06;5049628;28;20067;-48
2022/08/11 14:04:32;;;;;;;6.13;2.25;;;;;;;44.43;13.38;101967.78;5055572;28;20359;-50
2022/08/11 14:06:59;;;;;;;4.97;2.38;;;;;;;44.93;12.38;101975.72;5046388;28;20052;-49
2022/08/11 14:09:31;;;;;;;4.65;2.63;;;;;;;45.10;12.37;101966.00;5050803;28;20024;-49
2022/08/11 14:14:51;;;;;;;4.68;1.92;;;;;;;45.26;11.31;101963.91;5043728;28;20342;-48
2022/08/11 14:17:19;;;;;;;4.30;1.95;;;;;;;45.33;10.88;101963.25;5037601;28;20028;-51
2022/08/11 14:19:49;;;;;;;7.80;2.05;;;;;;;45.09;11.17;101961.59;5038724;28;20459;-51
2022/08/11 14:22:16;;;;;;;8.73;2.45;;;;;;;45.54;11.18;101955.22;5038771;28;20025;-49
2022/08/11 14:24:48;;;;;;;3.80;2.20;;;;;;;45.54;11.56;101963.66;5037468;28;20124;-49
2022/08/11 14:27:15;;;;;;;3.38;2.00;;;;;;;45.27;11.84;101954.28;5040098;28;20040;-46
2022/08/11 14:29:42;;;;;;;6.57;2.10;;;;;;;45.18;10.72;101951.69;5057148;28;20472;-50
2022/08/11 14:32:10;;;;;;;4.38;1.83;;;;;;;45.33;10.24;101949.94;5044580;28;20025;-50
2022/08/11 14:34:40;;;;;;;3.67;1.90;;;;;;;46.32;11.73;101956.88;5038169;28;20068;-50
2022/08/11 14:37:09;;;;;;;2.88;1.95;;;;;;;46.47;10.55;101952.25;5040197;28;20029;-50
2022/08/11 14:39:41;;;;;;;8.40;2.03;;;;;;;46.66;10.63;101949.31;5053311;28;20096;-51
2022/08/11 14:47:32;;;;;;;9.60;2.05;;;;;;;46.20;10.41;101948.63;5038437;28;20537;-49
2022/08/11 14:49:59;;;;;;;4.80;2.33;;;;;;;46.30;10.57;101940.28;5053972;28;20111;-51
2022/08/11 14:52:26;;;;;;;8.23;2.30;;;;;;;45.62;10.92;101942.81;5049095;28;20456;-51
2022/08/11 14:57:39;;;;;;;3.88;1.98;;;;;;;41.05;13.52;101928.69;5037972;28;20094;-50
2022/08/11 15:00:07;;;;;;;5.75;2.20;;;;;;;39.44;14.77;101923.78;5039995;28;20048;-50
2022/08/11 15:05:22;;;;;;;5.90;2.53;;;;;;;37.28;17.42;101918.94;5037155;28;20071;-50
2022/08/11 15:07:49;;;;;;;8.98;2.55;;;;;;;36.73;18.23;101915.22;5040080;28;20509;-51
2022/08/11 15:10:17;;;;;;;4.68;2.15;;;;;;;36.14;18.39;101909.47;5051331;28;20035;-49
2022/08/11 15:12:43;;;;;;;5.35;2.40;;;;;;;35.54;18.79;101899.22;5058066;28;20032;-49
2022/08/11 15:17:58;;;;;;;4.05;2.47;;;;;;;34.94;19.80;101895.16;5054814;28;20043;-49
2022/08/11 15:26:02;;;;;;;3.50;2.15;;;;;;;34.53;20.85;101901.28;5060034;28;20191;-49
2022/08/11 15:39:35;;;;;;;6.82;2.40;;;;;;;34.09;21.78;101882.16;5060274;28;20031;-49
2022/08/11 15:47:59;;;;;;;7.72;2.60;;;;;;;33.92;21.34;101877.09;5058655;28;20131;-51
2022/08/11 15:50:31;;;;;;;5.03;2.27;;;;;;;34.01;22.36;101880.84;5055267;28;20024;-48
2022/08/11 15:53:04;;;;;;;9.40;2.38;;;;;;;34.01;21.71;101870.59;5048525;28;20112;-51
2022/08/11 15:55:32;;;;;;;11.02;2.45;;;;;;;33.99;21.01;101869.22;5039385;28;20029;-51
2022/08/11 16:06:27;;;;;;;4.65;2.25;;;;;;;34.14;22.25;101857.13;5038561;28;20164;-50
2022/08/11 16:08:55;;;;;;;4.82;2.15;;;;;;;33.71;21.91;101866.22;5038951;28;20021;-51
2022/08/11 16:11:21;;;;;;;4.40;2.17;;;;;;;33.56;22.04;101855.28;5057327;28;20058;-48
2022/08/11 16:16:33;;;;;;;4.78;2.40;;;;;;;33.41;21.64;101859.84;5058625;28;20117;-47
2022/08/11 16:19:01;;;;;;;4.18;2.30;;;;;;;33.28;21.98;101846.66;5059345;28;20020;-51
2022/08/11 16:21:34;;;;;;;4.97;2.33;;;;;;;33.16;22.25;101844.28;5052234;28;20064;-50
2022/08/11 16:24:03;;;;;;;8.15;2.50;;;;;;;33.09;22.02;101847.34;5049420;28;20028;-50